Baaiduinen, Netherlands

1:42 PM CET on January 23, 2017 (GMT +0100)
West Terschelling | | Change Station

Elev 26 ft 53.37 °N, 5.22 °E | Updated 1 minute ago

Mostly Cloudy
Mostly Cloudy
40.8 °F
Feels Like 41 °F
N
0.9
Wind Variable Wind from SSW
Gusts 2.1 mph

Today
High -- | Low -- °F
--% Chance of Precip.
Yesterday
High -- | Low -- °F
Precip. -- in
Pressure 30.30 in
Visibility 5.6 miles
Clouds Overcast 5800 ft
Windchill 41 °F
Dew Point 39 °F
Humidity 94%
Rainfall 0.00 in
Snow Depth Not available.
8:36 AM 5:05 PM
Waning Crescent, 19% visible
METAR EHVL 231225Z AUTO 27009KT 9000 BR OVC058 05/03 Q1026 BLU
Pressure 30.30 in
Visibility 5.6 miles
Clouds Overcast 5800 ft
Windchill 41 °F
Dew Point 39 °F
Humidity 94%
Rainfall 0.00 in
Snow Depth Not available.
8:36 AM 5:05 PM
Waning Crescent, 19% visible
METAR EHVL 231225Z AUTO 27009KT 9000 BR OVC058 05/03 Q1026 BLU

Get Your Daily Forecast Email!

Thanks for signing up!

Be on the lookout for a verification email in your inbox.

You'll start receiving the daily forecast at 8 AM.

×

10-Day Weather Forecast

×

Almanac

Astronomy

Jan. 23, 2017 Rise Set
Actual Time
Civil Twilight
Nautical Twilight
Astronomical Twilight
Moon
Length of Visible Light
Length of Day
Tomorrow will be .
, % of the Moon is Illuminated

Today's Extremes

Country Highs Country Lows

Community

WunderPhotos

Upload Photos

1,962,540 photos uploaded!

WunderBlog® & News

Nearby

Air Quality

  Air Quality AQ Index Pollutant
Not available.

Snow Depth

Station Depth Elevation

Earthquake Activity

City Distance Mag. Time & Date
Minimum magnitude displayed is 2.5.

Coastal Water Temperatures

Place Temperature

Stations

Nearby Weather Stations

Station Location Temp. Windchill Dew Point Humidity Wind Precip. Elev Updated Type